Time;durP1;ratioP1;P1;durP2;ratioP2;P2;SDS_P1;SDS_P2;PMS_P1;PMS_P2;Temp;Humidity;BMP_temperature;BMP_pressure;BME280_temperature;BME280_humidity;BME280_pressure;Samples;Min_cycle;Max_cycle;Signal;HPM_P1;HPM_P2
2023/06/28 06:29:54;;;;;;;;;7.33;5.67;;;;;20.33;50.12;101604.38;4912663;28;45651;-81
2023/06/28 06:32:20;;;;;;;;;9.00;8.00;;;;;20.66;50.92;101640.13;4931446;28;45557;-80
2023/06/28 06:34:45;;;;;;;;;6.33;4.33;;;;;20.75;50.20;101623.94;4924940;28;45634;-79
2023/06/28 06:37:12;;;;;;;;;4.00;4.00;;;;;20.90;49.52;101607.78;4916993;28;45493;-80
2023/06/28 06:39:38;;;;;;;;;6.33;5.00;;;;;21.27;49.26;101629.03;4915060;28;45575;-80
2023/06/28 06:42:04;;;;;;;;;5.00;5.00;;;;;20.95;48.90;101525.31;4920897;28;45353;-80
2023/06/28 06:44:29;;;;;;;;;5.00;4.33;;;;;21.54;48.60;101589.44;4911272;28;45405;-81
2023/06/28 06:46:55;;;;;;;;;7.67;5.00;;;;;21.96;48.27;101616.84;4934659;28;45377;-81
2023/06/28 06:49:20;;;;;;;;;7.33;4.00;;;;;22.19;47.67;101616.69;4913558;28;45546;-84
2023/06/28 06:51:46;;;;;;;;;6.33;4.00;;;;;22.50;46.95;101636.06;4931993;28;48187;-80
2023/06/28 06:54:11;;;;;;;;;6.00;5.00;;;;;22.54;46.62;101606.34;4915986;28;45410;-81
2023/06/28 06:56:36;;;;;;;;;7.33;6.00;;;;;22.71;46.59;101591.78;4933244;28;45265;-81
2023/06/28 06:59:02;;;;;;;;;4.33;4.00;;;;;23.07;46.71;101629.97;4913421;28;45947;-83
2023/06/28 07:01:29;;;;;;;;;4.67;4.00;;;;;23.15;45.51;101620.84;4919683;28;46285;-81
2023/06/28 07:03:55;;;;;;;;;2.33;2.00;;;;;23.48;46.26;101641.97;4917252;28;45450;-81
2023/06/28 07:06:20;;;;;;;;;4.67;4.67;;;;;23.51;45.38;101610.41;4919230;28;45527;-81
2023/06/28 07:08:46;;;;;;;;;8.00;5.00;;;;;23.84;44.95;101641.38;4917512;28;45411;-81
2023/06/28 07:11:12;;;;;;;;;4.50;4.25;;;;;23.61;44.42;101578.75;4920169;28;45275;-81
2023/06/28 07:13:38;;;;;;;;;3.75;3.75;;;;;24.16;43.68;101641.72;4915436;28;45508;-82
2023/06/28 07:16:03;;;;;;;;;4.50;3.00;;;;;24.29;43.86;101629.78;4921001;28;45350;-82
2023/06/28 07:18:29;;;;;;;;;6.25;4.75;;;;;24.58;43.33;101640.03;4917308;28;45449;-79
2023/06/28 07:20:54;;;;;;;;;3.50;3.50;;;;;24.66;42.85;101615.53;4919754;28;46473;-81
2023/06/28 07:23:20;;;;;;;;;5.00;4.00;;;;;24.88;42.68;101622.28;4916417;28;45425;-81
2023/06/28 07:25:46;;;;;;;;;6.00;5.00;;;;;24.93;42.54;101597.84;4917386;28;45381;-81
2023/06/28 07:28:11;;;;;;;;;5.50;4.50;;;;;24.99;41.79;101562.53;4914546;28;46325;-82
2023/06/28 07:30:54;;;;;;;;;4.00;3.25;;;;;25.62;42.34;101643.09;4918485;28;46744;-81
2023/06/28 07:33:23;;;;;;;;;7.75;5.50;;;;;25.71;40.88;101639.31;4918816;28;45481;-81
2023/06/28 07:35:49;;;;;;;;;6.50;4.00;;;;;26.03;42.51;101657.47;4920043;28;45351;-79
2023/06/28 07:38:19;;;;;;;;;5.75;4.25;;;;;26.13;41.72;101649.97;4916612;28;45733;-78
2023/06/28 07:40:48;;;;;;;;;3.25;3.25;;;;;26.23;41.84;101647.91;4909979;28;46956;-80
2023/06/28 07:43:16;;;;;;;;;6.75;4.50;;;;;26.34;40.50;101652.09;4913898;28;45317;-80
2023/06/28 07:45:41;;;;;;;;;5.50;5.00;;;;;26.38;40.30;101636.63;4914755;28;45358;-79
2023/06/28 07:48:07;;;;;;;;;7.75;5.00;;;;;26.61;39.46;101654.09;4916151;28;47232;-75
2023/06/28 07:50:33;;;;;;;;;5.25;5.00;;;;;26.73;39.40;101645.63;4929408;28;46537;-76
2023/06/28 07:52:58;;;;;;;;;4.25;3.75;;;;;26.62;38.91;101575.41;4916104;28;45355;-76
2023/06/28 07:55:23;;;;;;;;;7.25;4.25;;;;;27.11;40.10;101620.03;4915998;28;45428;-76
2023/06/28 07:57:49;;;;;;;;;5.00;5.00;;;;;27.07;38.91;101587.59;4917065;28;45346;-78
2023/06/28 08:00:15;;;;;;;;;7.50;4.00;;;;;27.50;39.79;101618.81;4906108;28;46715;-77
2023/06/28 08:02:40;;;;;;;;;5.00;4.00;;;;;27.43;38.53;101580.13;4915185;28;45327;-80
2023/06/28 08:05:07;;;;;;;;;4.00;4.00;;;;;27.72;37.69;101598.13;4906353;28;47657;-77
2023/06/28 08:07:33;;;;;;;;;5.00;5.00;;;;;27.73;37.99;101596.28;4917690;28;45373;-76
2023/06/28 08:09:59;;;;;;;;;8.00;6.00;;;;;27.82;37.53;101594.19;4905516;28;46880;-75
2023/06/28 08:12:24;;;;;;;;;4.75;4.75;;;;;28.14;36.80;101616.63;4917624;28;45298;-74
2023/06/28 08:14:49;;;;;;;;;7.00;6.00;;;;;28.07;36.88;101575.19;4907938;28;45296;-77
2023/06/28 08:17:15;;;;;;;;;6.00;5.50;;;;;28.38;37.81;101601.25;4918649;28;46291;-74
2023/06/28 08:19:40;;;;;;;;;8.00;6.00;;;;;28.51;38.14;101616.19;4912534;28;45402;-74
2023/06/28 08:22:05;;;;;;;;;8.00;5.00;;;;;28.68;37.12;101620.09;4920194;28;45295;-74
2023/06/28 08:24:30;;;;;;;;;6.75;5.50;;;;;28.80;35.95;101613.31;4913809;28;45466;-73
2023/06/28 08:26:56;;;;;;;;;13.00;6.75;;;;;29.03;36.45;101631.47;4921175;28;45830;-73
2023/06/28 08:29:22;;;;;;;;;6.25;5.50;;;;;29.11;35.34;101622.06;4923112;28;46728;-73
2023/06/28 08:31:48;;;;;;;;;6.20;5.40;;;;;29.32;36.62;101625.75;4922140;28;45357;-74
2023/06/28 08:34:15;;;;;;;;;5.75;5.75;;;;;29.08;34.88;101565.03;4917373;28;45267;-73
2023/06/28 08:36:40;;;;;;;;;6.00;6.00;;;;;29.40;35.79;101581.84;4922017;28;45699;-73
2023/06/28 08:39:06;;;;;;;;;6.25;6.25;;;;;29.74;35.55;101614.03;4912028;28;51488;-75
2023/06/28 08:41:33;;;;;;;;;3.25;3.25;;;;;29.76;33.54;101594.91;4934820;28;51481;-73
2023/06/28 08:44:00;;;;;;;;;7.60;6.00;;;;;29.81;33.63;101568.34;4914968;28;45397;-73
2023/06/28 08:46:29;;;;;;;;;5.50;5.50;;;;;30.23;33.60;101601.00;4921874;28;46235;-79
2023/06/28 08:48:55;;;;;;;;;4.20;4.20;;;;;30.33;35.07;101590.53;4916988;28;45361;-74
2023/06/28 08:51:21;;;;;;;;;8.00;6.80;;;;;30.48;34.07;101594.44;4931998;28;45551;-74
2023/06/28 08:53:48;;;;;;;;;4.50;4.50;;;;;30.52;34.99;101579.69;4916932;28;45434;-75
2023/06/28 08:56:15;;;;;;;;;3.00;3.00;;;;;30.49;34.36;101569.78;4932874;28;47252;-76
2023/06/28 08:58:41;;;;;;;;;5.80;5.80;;;;;30.77;31.98;101601.25;4933379;28;47585;-76
2023/06/28 09:01:08;;;;;;;;;4.80;4.00;;;;;30.77;31.78;101572.09;4918318;28;45450;-79
2023/06/28 09:03:40;;;;;;;;;5.40;4.80;;;;;31.08;32.90;101613.44;4918610;28;45575;-73
2023/06/28 09:06:05;;;;;;;;;6.80;4.40;;;;;31.12;33.92;101579.59;4920543;28;45551;-75
2023/06/28 09:08:32;;;;;;;;;8.75;5.00;;;;;31.25;32.05;101564.31;4919928;28;45374;-75
2023/06/28 09:10:59;;;;;;;;;8.00;6.80;;;;;31.53;31.66;101601.22;4921234;28;45355;-74
2023/06/28 09:13:25;;;;;;;;;9.00;8.80;;;;;31.65;32.95;101585.09;4920560;28;45432;-74
2023/06/28 09:15:53;;;;;;;;;6.20;4.60;;;;;31.81;31.63;101595.22;4920847;28;45643;-76
2023/06/28 09:18:19;;;;;;;;;4.80;4.80;;;;;31.97;32.41;101614.50;4915408;28;47200;-75
2023/06/28 09:20:52;;;;;;;;;5.25;5.25;;;;;31.88;31.33;101594.84;4906640;28;45338;-76
2023/06/28 09:23:28;;;;;;;;;9.00;5.60;;;;;32.11;31.25;101606.44;4908084;28;45284;-77
2023/06/28 09:25:54;;;;;;;;;11.00;8.00;;;;;32.22;30.34;101603.13;4908309;28;45321;-74
2023/06/28 09:28:23;;;;;;;;;6.00;5.00;;;;;32.46;30.86;101606.41;4914319;28;46455;-76
2023/06/28 09:30:55;;;;;;;;;7.00;7.00;;;;;32.46;28.57;101566.25;4915199;28;45480;-77
2023/06/28 09:33:22;;;;;;;;;7.80;6.40;;;;;32.85;28.78;101599.69;4911653;28;45446;-77
2023/06/28 09:35:52;;;;;;;;;37.25;29.75;;;;;32.96;29.65;101589.00;4918266;28;45821;-75
2023/06/28 09:38:18;;;;;;;;;6.40;5.00;;;;;33.09;28.57;101572.78;4914346;28;45371;-74
2023/06/28 09:40:43;;;;;;;;;10.00;7.75;;;;;33.17;28.90;101567.75;4912505;28;45253;-77
2023/06/28 09:43:14;;;;;;;;;10.25;8.00;;;;;33.39;30.75;101583.81;4916109;28;46090;-77
2023/06/28 09:45:39;;;;;;;;;6.60;4.00;;;;;33.41;30.69;101554.44;4911669;28;45496;-76
2023/06/28 09:48:05;;;;;;;;;9.00;6.25;;;;;33.61;30.88;101559.66;4915457;28;46941;-75
2023/06/28 09:51:04;;;;;;;;;12.00;9.75;;;;;33.68;29.45;101582.09;4914774;28;45540;-75
2023/06/28 09:53:31;;;;;;;;;7.20;7.20;;;;;33.61;29.01;101551.44;4907673;28;45489;-76
2023/06/28 09:55:57;;;;;;;;;9.60;7.80;;;;;33.89;29.07;101571.69;4921062;28;45445;-75
2023/06/28 09:58:25;;;;;;;;;9.00;7.00;;;;;34.03;27.92;101571.72;4916151;28;45434;-79
2023/06/28 10:00:50;;;;;;;;;10.80;10.60;;;;;34.12;29.21;101551.06;4927397;28;45308;-76
2023/06/28 10:03:20;;;;;;;;;14.50;13.25;;;;;34.35;28.02;101566.06;4914285;28;45365;-72
2023/06/28 10:05:45;;;;;;;;;16.40;13.00;;;;;34.39;27.12;101542.03;4914311;28;45624;-76
2023/06/28 10:08:15;;;;;;;;;13.25;10.00;;;;;34.56;28.13;101550.09;4930867;28;46925;-78
2023/06/28 10:10:42;;;;;;;;;9.80;7.80;;;;;34.65;28.15;101549.53;4911894;28;45451;-79
2023/06/28 10:13:20;;;;;;;;;8.60;8.20;;;;;34.79;28.10;101547.72;4919342;28;45278;-78
2023/06/28 10:15:56;;;;;;;;;9.60;8.00;;;;;34.78;28.43;101548.72;4928978;28;45497;-77
2023/06/28 10:18:24;;;;;;;;;10.40;9.60;;;;;34.71;28.42;101546.38;4919185;28;45484;-82
2023/06/28 10:20:49;;;;;;;;;19.20;19.20;;;;;34.71;27.53;101551.88;4915966;28;45523;-79
2023/06/28 10:23:16;;;;;;;;;12.00;10.50;;;;;34.57;27.03;101531.78;4916261;28;45440;-79
2023/06/28 10:25:44;;;;;;;;;17.20;16.40;;;;;34.58;28.00;101517.94;4915906;28;45303;-79
2023/06/28 10:28:10;;;;;;;;;12.20;10.60;;;;;34.56;27.21;101503.41;4916628;28;45299;-80
2023/06/28 10:30:38;;;;;;;;;12.40;11.00;;;;;34.43;27.68;101516.19;4909832;28;45236;-78
2023/06/28 10:33:05;;;;;;;;;12.20;11.20;;;;;34.73;27.49;101543.50;4915599;28;45474;-78
2023/06/28 10:35:31;;;;;;;;;10.80;7.80;;;;;34.75;27.28;101525.94;4927093;28;46041;-78
2023/06/28 10:37:58;;;;;;;;;9.25;8.75;;;;;35.01;27.36;101550.84;4917433;28;46603;-79
2023/06/28 10:40:25;;;;;;;;;9.00;9.00;;;;;35.13;27.51;101551.91;4912956;28;45476;-81
2023/06/28 10:42:50;;;;;;;;;9.60;9.00;;;;;35.20;27.21;101553.25;4917114;28;45408;-77
2023/06/28 10:45:16;;;;;;;;;12.00;9.75;;;;;34.97;27.47;101519.03;4927482;28;45707;-76
2023/06/28 10:47:54;;;;;;;;;12.75;11.50;;;;;35.06;27.50;101525.81;4908956;28;45404;-76
2023/06/28 10:50:21;;;;;;;;;11.00;10.80;;;;;35.36;25.58;101542.09;4913365;28;45330;-75
2023/06/28 10:52:51;;;;;;;;;12.80;12.80;;;;;35.49;26.89;101543.03;4919249;28;45368;-75
2023/06/28 10:55:21;;;;;;;;;14.00;12.80;;;;;35.40;27.18;101511.53;4915492;28;45511;-74
2023/06/28 10:58:04;;;;;;;;;8.80;8.80;;;;;35.66;26.40;101522.63;4917068;28;47033;-75
2023/06/28 11:00:44;;;;;;;;;11.20;11.20;;;;;35.84;26.80;101532.31;4912991;28;45346;-75
2023/06/28 11:03:10;;;;;;;;;13.80;13.00;;;;;35.81;25.59;101537.16;4911564;28;46229;-75
2023/06/28 11:05:35;;;;;;;;;12.00;11.75;;;;;35.79;26.20;101528.13;4918080;28;46034;-74
2023/06/28 11:08:09;;;;;;;;;12.00;10.75;;;;;35.77;26.31;101514.50;4919112;28;46485;-75
2023/06/28 11:10:42;;;;;;;;;18.80;13.60;;;;;35.80;25.82;101516.16;4918775;28;45326;-76
2023/06/28 11:13:12;;;;;;;;;14.80;14.40;;;;;36.03;24.99;101522.75;4918122;28;45254;-76
2023/06/28 11:15:45;;;;;;;;;13.80;13.40;;;;;36.04;26.07;101505.25;4919049;28;45746;-77
2023/06/28 11:18:18;;;;;;;;;13.20;12.00;;;;;36.24;25.06;101517.59;4915412;28;48542;-76
2023/06/28 11:20:58;;;;;;;;;17.80;15.20;;;;;36.20;24.73;101499.56;4904906;28;45280;-75
2023/06/28 11:23:37;;;;;;;;;16.20;16.00;;;;;36.30;25.60;101498.78;4920763;28;45381;-77
2023/06/28 11:26:04;;;;;;;;;16.60;14.60;;;;;36.22;25.07;101512.22;4908962;28;46159;-75
2023/06/28 11:28:31;;;;;;;;;14.80;14.20;;;;;36.17;25.61;101503.41;4915685;28;45539;-76
2023/06/28 11:31:21;;;;;;;;;15.00;12.00;;;;;36.32;25.60;101504.16;4920977;28;45405;-75
2023/06/28 11:33:48;;;;;;;;;11.20;9.60;;;;;36.48;25.71;101501.16;4910809;28;45455;-75
2023/06/28 11:36:14;;;;;;;;;16.20;14.20;;;;;36.43;24.62;101495.97;4912466;28;45267;-76
2023/06/28 11:38:44;;;;;;;;;13.50;13.50;;;;;36.49;24.38;101494.66;4913201;28;45589;-75
2023/06/28 11:41:09;;;;;;;;;18.00;17.80;;;;;36.55;24.55;101476.81;4913847;28;45520;-75
2023/06/28 11:43:34;;;;;;;;;16.75;15.00;;;;;36.72;24.50;101493.88;4929225;28;45760;-76
2023/06/28 11:46:00;;;;;;;;;16.25;14.25;;;;;36.78;24.79;101473.22;4914911;28;45433;-74
2023/06/28 11:48:25;;;;;;;;;14.00;14.00;;;;;36.89;25.12;101472.41;4914603;28;47924;-75
2023/06/28 11:51:02;;;;;;;;;14.25;14.25;;;;;37.08;24.46;101497.56;4916873;28;45370;-74
2023/06/28 11:53:29;;;;;;;;;22.60;16.00;;;;;37.07;24.69;101489.44;4915239;28;45584;-77
2023/06/28 11:55:56;;;;;;;;;16.20;15.60;;;;;36.89;23.94;101469.66;4917135;28;45365;-74
2023/06/28 11:58:32;;;;;;;;;16.40;13.60;;;;;36.97;23.80;101492.88;4916339;28;46665;-73
2023/06/28 12:00:59;;;;;;;;;15.40;13.80;;;;;36.71;23.72;101459.03;4920290;28;45319;-75
2023/06/28 12:03:36;;;;;;;;;13.20;13.00;;;;;36.68;24.86;101436.34;4920437;28;45447;-76
2023/06/28 12:06:04;;;;;;;;;11.20;11.20;;;;;36.82;24.63;101457.34;4923750;28;45523;-77
2023/06/28 12:08:39;;;;;;;;;16.60;15.80;;;;;36.72;25.22;101482.84;4919640;28;47085;-74
2023/06/28 12:11:09;;;;;;;;;17.00;14.40;;;;;36.24;24.38;101432.25;4936390;28;45299;-77
2023/06/28 12:13:35;;;;;;;;;18.20;15.20;;;;;36.36;24.27;101466.28;4919950;28;45454;-74
2023/06/28 12:16:17;;;;;;;;;16.00;14.50;;;;;36.58;24.73;101488.50;4923416;28;45577;-75
2023/06/28 12:18:59;;;;;;;;;16.80;15.00;;;;;36.56;24.93;101487.72;4916442;28;47819;-75
2023/06/28 12:21:27;;;;;;;;;20.00;15.20;;;;;36.48;24.48;101455.22;4922160;28;45231;-75
2023/06/28 12:23:53;;;;;;;;;17.00;15.00;;;;;36.33;24.38;101445.34;4918285;28;45370;-73
2023/06/28 12:26:22;;;;;;;;;16.00;14.50;;;;;36.30;24.80;101462.09;4923834;28;45512;-76
2023/06/28 12:28:48;;;;;;;;;19.20;14.80;;;;;36.42;24.55;101472.19;4919193;28;46133;-76
2023/06/28 12:31:15;;;;;;;;;16.40;14.80;;;;;36.41;24.24;101439.25;4917122;28;46473;-75
2023/06/28 12:33:41;;;;;;;;;16.00;14.20;;;;;36.47;24.75;101417.66;4914802;28;45396;-75
2023/06/28 12:36:06;;;;;;;;;16.25;16.25;;;;;36.80;23.52;101473.09;4923879;28;45290;-74
2023/06/28 12:38:31;;;;;;;;;25.00;22.25;;;;;36.78;24.58;101444.81;4916753;28;46479;-74
2023/06/28 12:40:58;;;;;;;;;16.75;16.75;;;;;36.72;24.02;101421.34;4923364;28;45437;-74
2023/06/28 12:43:25;;;;;;;;;19.60;16.60;;;;;37.08;23.24;101463.63;4919366;28;45269;-75
2023/06/28 12:45:55;;;;;;;;;17.40;14.80;;;;;37.13;24.16;101455.88;4921978;28;46618;-74
2023/06/28 12:48:22;;;;;;;;;16.00;13.80;;;;;36.97;23.93;101429.50;4919499;28;47966;-75
2023/06/28 12:50:50;;;;;;;;;20.20;14.60;;;;;36.51;23.78;101353.06;4922517;28;45341;-74
2023/06/28 12:53:15;;;;;;;;;18.20;16.40;;;;;37.31;23.63;101457.22;4918263;28;45635;-75
2023/06/28 12:55:41;;;;;;;;;19.00;19.00;;;;;37.08;23.46;101430.53;4911826;28;45303;-74
2023/06/28 12:58:08;;;;;;;;;18.00;15.25;;;;;37.07;23.91;101434.31;4918684;28;46413;-74
2023/06/28 13:00:35;;;;;;;;;16.60;15.00;;;;;36.80;24.52;101415.22;4920437;28;45489;-74
2023/06/28 13:03:02;;;;;;;;;17.20;16.20;;;;;36.55;24.39;101417.09;4918482;28;45346;-74
2023/06/28 13:05:28;;;;;;;;;17.00;16.00;;;;;36.56;23.62;101456.56;4922263;28;45683;-74
2023/06/28 13:07:53;;;;;;;;;16.00;14.25;;;;;36.33;24.12;101449.97;4919640;28;46271;-74
2023/06/28 13:10:19;;;;;;;;;18.25;17.00;;;;;35.83;24.48;101390.25;4921580;28;45404;-76
2023/06/28 13:12:44;;;;;;;;;17.75;16.25;;;;;35.66;24.34;101397.97;4918959;28;45399;-74
2023/06/28 13:15:10;;;;;;;;;20.75;16.00;;;;;35.82;24.71;101457.28;4920854;28;45396;-78
2023/06/28 13:17:35;;;;;;;;;18.00;14.00;;;;;35.62;25.15;101433.91;4920623;28;46547;-74
2023/06/28 13:20:00;;;;;;;;;16.50;15.75;;;;;35.46;24.81;101416.75;4915041;28;45500;-78
2023/06/28 13:22:26;;;;;;;;;15.25;14.00;;;;;35.59;25.27;101449.75;4921958;28;45431;-70
2023/06/28 13:24:51;;;;;;;;;12.75;12.50;;;;;35.33;24.55;101393.84;4916287;28;49315;-72
2023/06/28 13:27:16;;;;;;;;;16.75;15.25;;;;;35.47;25.12;101410.25;4921894;28;45435;-70
2023/06/28 13:29:42;;;;;;;;;16.75;15.75;;;;;35.70;24.62;101429.75;4907284;28;45478;-70
2023/06/28 13:32:07;;;;;;;;;19.25;17.00;;;;;35.46;25.38;101383.75;4916906;28;45943;-70
2023/06/28 13:34:34;;;;;;;;;14.25;14.25;;;;;35.46;24.17;101399.34;4911593;28;45511;-72
2023/06/28 13:36:59;;;;;;;;;14.00;14.00;;;;;35.62;24.44;101416.53;4916924;28;46125;-70
2023/06/28 13:39:25;;;;;;;;;16.50;15.00;;;;;35.74;25.22;101421.19;4912975;28;45365;-69
2023/06/28 13:41:50;;;;;;;;;19.25;13.25;;;;;35.30;25.59;101413.31;4935853;28;45437;-70
2023/06/28 13:44:15;;;;;;;;;16.25;15.25;;;;;34.93;25.02;101383.75;4917855;28;46035;-70
2023/06/28 13:46:41;;;;;;;;;17.75;15.75;;;;;34.93;26.00;101413.97;4922214;28;46411;-70
2023/06/28 13:49:06;;;;;;;;;17.25;17.25;;;;;34.78;25.87;101409.50;4915265;28;45457;-72
2023/06/28 13:51:32;;;;;;;;;12.75;11.75;;;;;34.70;25.53;101433.84;4918048;28;45287;-72
2023/06/28 13:53:58;;;;;;;;;17.25;16.00;;;;;34.46;25.41;101419.88;4917344;28;45494;-72
2023/06/28 13:56:23;;;;;;;;;18.25;16.75;;;;;34.45;26.21;101426.34;4918807;28;45501;-71
2023/06/28 13:58:49;;;;;;;;;21.00;17.25;;;;;34.01;26.36;101365.13;4917042;28;45310;-71
2023/06/28 14:01:14;;;;;;;;;17.75;15.00;;;;;34.26;26.10;101419.34;4920594;28;45448;-71
2023/06/28 14:03:40;;;;;;;;;17.50;16.75;;;;;34.13;26.75;101422.97;4919600;28;45365;-71
2023/06/28 14:06:05;;;;;;;;;13.00;11.75;;;;;33.82;26.72;101387.38;4921213;28;45379;-71
2023/06/28 14:08:31;;;;;;;;;8.75;5.25;;;;;33.79;27.14;101403.16;4916705;28;45479;-71
2023/06/28 14:10:56;;;;;;;;;14.75;14.75;;;;;33.54;26.33;101374.56;4920559;28;45624;-71
2023/06/28 14:13:21;;;;;;;;;16.25;14.00;;;;;33.55;26.96;101400.97;4916119;28;45279;-71
2023/06/28 14:15:47;;;;;;;;;15.00;11.50;;;;;33.50;27.21;101404.94;4908181;28;46922;-71
2023/06/28 14:18:12;;;;;;;;;16.50;16.00;;;;;33.27;27.70;101393.56;4916959;28;45271;-72
2023/06/28 14:20:38;;;;;;;;;19.50;15.50;;;;;33.32;27.08;101404.25;4905101;28;45740;-71
2023/06/28 14:23:03;;;;;;;;;18.00;15.00;;;;;33.27;27.55;101396.31;4915817;28;45544;-71
2023/06/28 14:25:28;;;;;;;;;20.50;14.25;;;;;33.11;26.94;101358.03;4925219;28;47932;-71
2023/06/28 14:27:54;;;;;;;;;14.50;12.50;;;;;33.37;27.57;101380.19;4915942;28;45240;-71
2023/06/28 14:30:19;;;;;;;;;49.33;39.00;;;;;33.31;27.54;101381.44;4911410;28;45436;-71
2023/06/28 14:32:46;;;;;;;;;18.00;16.25;;;;;33.27;27.18;101368.91;4918969;28;45580;-71
2023/06/28 14:35:13;;;;;;;;;18.40;15.00;;;;;33.25;27.72;101380.97;4918343;28;45365;-71
2023/06/28 14:37:39;;;;;;;;;18.20;14.60;;;;;33.22;27.44;101384.75;4919518;28;45319;-71
2023/06/28 14:40:06;;;;;;;;;16.75;13.75;;;;;33.19;28.11;101382.22;4911983;28;45350;-71
2023/06/28 14:42:31;;;;;;;;;17.40;12.40;;;;;33.19;28.10;101377.63;4918976;28;45488;-71
2023/06/28 14:44:56;;;;;;;;;14.00;12.50;;;;;33.12;27.92;101381.69;4912259;28;48330;-71
2023/06/28 14:47:22;;;;;;;;;15.00;14.50;;;;;33.01;27.56;101380.59;4918771;28;45306;-71
2023/06/28 14:49:47;;;;;;;;;18.00;15.75;;;;;32.86;27.97;101383.25;4913083;28;45312;-71
2023/06/28 14:52:12;;;;;;;;;17.00;14.25;;;;;32.66;28.28;101364.41;4919102;28;47849;-71
2023/06/28 14:54:37;;;;;;;;;16.00;14.50;;;;;32.63;28.15;101372.75;4912842;28;47576;-71
2023/06/28 14:57:04;;;;;;;;;19.00;14.25;;;;;32.38;28.70;101340.44;4919176;28;45244;-71
2023/06/28 14:59:29;;;;;;;;;17.60;16.20;;;;;32.45;28.42;101375.59;4916514;28;45533;-71
2023/06/28 15:01:55;;;;;;;;;17.25;14.50;;;;;32.23;28.80;101359.53;4919852;28;45570;-74
2023/06/28 15:04:20;;;;;;;;;16.25;12.00;;;;;31.89;29.02;101335.94;4918760;28;45390;-74
2023/06/28 15:06:47;;;;;;;;;19.50;16.00;;;;;31.70;29.03;101321.53;4918910;28;45381;-74
2023/06/28 15:09:12;;;;;;;;;16.80;14.40;;;;;31.64;28.99;101339.16;4911910;28;45299;-74
2023/06/28 15:11:37;;;;;;;;;15.75;15.25;;;;;31.73;29.16;101359.63;4920792;28;45325;-74
2023/06/28 15:14:06;;;;;;;;;16.75;11.50;;;;;31.60;28.89;101348.50;4913172;28;46211;-75
2023/06/28 15:16:31;;;;;;;;;14.00;13.40;;;;;31.63;29.32;101370.19;4921465;28;45258;-75
2023/06/28 15:18:57;;;;;;;;;17.00;17.00;;;;;31.30;30.25;101316.38;4915702;28;45395;-81
2023/06/28 15:21:22;;;;;;;;;17.50;15.00;;;;;31.24;29.44;101313.09;4920056;28;47141;-81
2023/06/28 15:23:47;;;;;;;;;22.00;16.00;;;;;31.49;29.90;101362.75;4915844;28;46465;-81
2023/06/28 15:26:13;;;;;;;;;13.25;12.75;;;;;31.35;30.05;101343.47;4933688;28;45793;-80
2023/06/28 15:28:38;;;;;;;;;17.25;15.50;;;;;31.40;30.08;101361.41;4915049;28;45399;-80
2023/06/28 15:31:04;;;;;;;;;13.75;13.50;;;;;31.36;30.48;101364.38;4925687;28;45227;-88
2023/06/28 15:33:29;;;;;;;;;17.50;16.25;;;;;31.35;30.26;101359.84;4914127;28;46358;-82
2023/06/28 15:35:55;;;;;;;;;21.50;15.75;;;;;31.31;30.18;101359.09;4921953;28;45377;-73
2023/06/28 15:38:20;;;;;;;;;17.25;14.25;;;;;31.19;30.34;101337.94;4916143;28;45588;-74
2023/06/28 15:40:49;;;;;;;;;16.00;14.25;;;;;31.25;30.19;101340.31;4922361;28;47050;-74
2023/06/28 15:43:14;;;;;;;;;16.40;14.20;;;;;31.09;29.32;101314.78;4918075;28;45454;-75
2023/06/28 15:45:40;;;;;;;;;12.75;12.75;;;;;31.18;29.89;101337.06;4921774;28;45406;-74
2023/06/28 15:48:05;;;;;;;;;16.75;15.25;;;;;31.01;30.24;101315.22;4920366;28;45544;-75
2023/06/28 15:50:30;;;;;;;;;20.00;16.75;;;;;31.16;30.38;101346.28;4923897;28;45519;-74
2023/06/28 15:52:57;;;;;;;;;20.00;19.00;;;;;31.08;30.56;101348.53;4935374;28;46641;-74
2023/06/28 15:55:24;;;;;;;;;20.80;20.00;;;;;30.99;30.66;101345.31;4936723;28;45369;-74
2023/06/28 15:57:50;;;;;;;;;20.50;17.25;;;;;30.68;30.83;101312.38;4920509;28;45478;-74
2023/06/28 16:00:15;;;;;;;;;24.50;22.75;;;;;30.48;31.02;101299.75;4923550;28;45418;-74
2023/06/28 16:02:41;;;;;;;;;18.25;16.25;;;;;30.64;31.48;101333.50;4921067;28;46845;-74
2023/06/28 16:05:06;;;;;;;;;22.75;20.50;;;;;30.46;31.74;101305.28;4921744;28;45405;-74
2023/06/28 16:07:31;;;;;;;;;18.50;18.00;;;;;30.72;31.53;101344.88;4921969;28;45416;-74
2023/06/28 16:09:57;;;;;;;;;22.00;19.75;;;;;30.48;31.20;101289.72;4916964;28;45290;-75
2023/06/28 16:12:22;;;;;;;;;26.50;21.50;;;;;30.68;31.30;101326.91;4921792;28;52914;-74
2023/06/28 16:14:47;;;;;;;;;22.75;18.75;;;;;30.53;31.73;101312.22;4916642;28;45900;-74
2023/06/28 16:17:13;;;;;;;;;17.75;17.75;;;;;30.51;32.04;101325.03;4923267;28;45627;-74
2023/06/28 16:19:38;;;;;;;;;32.00;30.25;;;;;30.40;32.05;101310.19;4918034;28;45278;-75
2023/06/28 16:22:04;;;;;;;;;25.00;20.00;;;;;30.41;31.92;101311.94;4923502;28;46540;-74
2023/06/28 16:24:29;;;;;;;;;24.75;24.50;;;;;30.36;32.27;101304.00;4917308;28;45559;-74
2023/06/28 16:26:54;;;;;;;;;21.50;20.50;;;;;30.41;32.75;101311.94;4924096;28;45558;-75
2023/06/28 16:29:20;;;;;;;;;26.00;24.00;;;;;30.43;32.11;101324.53;4919744;28;46465;-74
2023/06/28 16:31:45;;;;;;;;;21.75;20.50;;;;;30.42;31.57;101335.53;4929793;28;46880;-75
2023/06/28 16:34:10;;;;;;;;;20.25;17.00;;;;;30.20;32.69;101309.28;4916101;28;45493;-76
2023/06/28 16:36:40;;;;;;;;;17.75;17.50;;;;;30.17;32.74;101324.94;4923928;28;45322;-75
2023/06/28 16:39:06;;;;;;;;;27.00;26.00;;;;;29.97;32.42;101302.25;4917295;28;45422;-74
2023/06/28 16:41:31;;;;;;;;;31.00;24.50;;;;;29.73;32.64;101285.22;4923410;28;45301;-74
2023/06/28 16:43:56;;;;;;;;;36.50;29.75;;;;;29.70;32.62;101309.91;4917430;28;49309;-75
2023/06/28 16:46:22;;;;;;;;;30.50;28.00;;;;;29.52;34.02;101311.63;4923219;28;45203;-74
2023/06/28 16:48:47;;;;;;;;;44.00;31.00;;;;;29.36;34.37;101305.13;4919290;28;45284;-75
2023/06/28 16:51:14;;;;;;;;;33.50;27.50;;;;;29.20;33.50;101288.59;4936067;28;48310;-74
2023/06/28 16:53:39;;;;;;;;;27.75;23.25;;;;;29.19;34.80;101308.63;4920279;28;45270;-75
2023/06/28 16:56:04;;;;;;;;;27.75;24.00;;;;;29.11;34.21;101297.19;4919897;28;45522;-75
2023/06/28 16:58:30;;;;;;;;;30.00;24.75;;;;;29.08;34.27;101300.94;4918924;28;45394;-75
2023/06/28 17:00:55;;;;;;;;;28.75;23.75;;;;;29.17;35.02;101318.69;4937655;28;46897;-74
2023/06/28 17:03:20;;;;;;;;;23.50;22.00;;;;;29.14;34.91;101322.44;4920292;28;45335;-73
2023/06/28 17:05:46;;;;;;;;;28.50;25.50;;;;;28.96;34.63;101280.56;4922289;28;45370;-72
2023/06/28 17:08:12;;;;;;;;;23.75;21.75;;;;;29.16;35.16;101312.38;4919543;28;45288;-71
2023/06/28 17:10:38;;;;;;;;;25.00;23.25;;;;;28.90;35.07;101264.47;4916755;28;45299;-74
2023/06/28 17:13:05;;;;;;;;;32.50;28.75;;;;;29.13;34.66;101306.19;4920031;28;45562;-74
2023/06/28 17:15:32;;;;;;;;;32.75;28.50;;;;;28.91;35.39;101269.00;4938234;28;45268;-74
2023/06/28 17:17:58;;;;;;;;;26.25;23.75;;;;;29.10;34.05;101293.59;4934160;28;45954;-74
2023/06/28 17:20:23;;;;;;;;;30.50;27.25;;;;;29.16;35.31;101315.09;4920169;28;45566;-72
2023/06/28 17:22:49;;;;;;;;;26.00;25.25;;;;;28.90;35.10;101275.38;4921042;28;45256;-72
2023/06/28 17:25:14;;;;;;;;;24.50;23.00;;;;;28.89;35.61;101302.66;4934037;28;45460;-73
2023/06/28 17:27:40;;;;;;;;;27.50;22.50;;;;;28.81;36.22;101292.13;4920763;28;46414;-73
2023/06/28 17:30:06;;;;;;;;;25.75;24.25;;;;;28.85;36.07;101301.03;4915762;28;45452;-72
2023/06/28 17:32:31;;;;;;;;;29.25;28.00;;;;;28.68;36.84;101269.09;4922218;28;45326;-75
2023/06/28 17:34:56;;;;;;;;;29.75;26.75;;;;;28.82;36.32;101298.44;4917114;28;45303;-74
2023/06/28 17:37:22;;;;;;;;;32.50;29.00;;;;;28.62;35.96;101275.69;4921969;28;45401;-73
2023/06/28 17:39:47;;;;;;;;;29.25;25.25;;;;;28.66;36.37;101296.41;4914430;28;45464;-75
2023/06/28 17:42:12;;;;;;;;;25.75;25.25;;;;;28.46;36.23;101264.63;4919157;28;46360;-72